sensor_id;sensor_type;location;lat;lon;timestamp;P1;durP1;ratioP1;P2;durP2;ratioP2
74543;SDS011;63016;55.030;38.710;2023-04-24T00:02:13;6.63;;;4.20;;
74543;SDS011;63016;55.030;38.710;2023-04-24T00:04:39;7.30;;;4.20;;
74543;SDS011;63016;55.030;38.710;2023-04-24T00:07:05;7.18;;;4.43;;
74543;SDS011;63016;55.030;38.710;2023-04-24T00:09:32;6.00;;;4.35;;
74543;SDS011;63016;55.030;38.710;2023-04-24T00:11:58;7.72;;;4.38;;
74543;SDS011;63016;55.030;38.710;2023-04-24T00:14:23;10.20;;;4.03;;
74543;SDS011;63016;55.030;38.710;2023-04-24T00:16:49;6.63;;;3.88;;
74543;SDS011;63016;55.030;38.710;2023-04-24T00:19:15;6.88;;;4.07;;
74543;SDS011;63016;55.030;38.710;2023-04-24T00:21:40;7.03;;;3.90;;
74543;SDS011;63016;55.030;38.710;2023-04-24T00:24:06;7.28;;;4.53;;
74543;SDS011;63016;55.030;38.710;2023-04-24T00:26:34;6.00;;;4.28;;
74543;SDS011;63016;55.030;38.710;2023-04-24T00:29:00;7.15;;;4.25;;
74543;SDS011;63016;55.030;38.710;2023-04-24T00:31:25;7.20;;;4.45;;
74543;SDS011;63016;55.030;38.710;2023-04-24T00:33:51;6.45;;;3.83;;
74543;SDS011;63016;55.030;38.710;2023-04-24T00:36:16;6.45;;;3.95;;
74543;SDS011;63016;55.030;38.710;2023-04-24T00:38:44;6.47;;;3.72;;
74543;SDS011;63016;55.030;38.710;2023-04-24T00:41:10;7.65;;;4.13;;
74543;SDS011;63016;55.030;38.710;2023-04-24T00:43:36;7.18;;;4.25;;
74543;SDS011;63016;55.030;38.710;2023-04-24T00:46:01;8.23;;;4.25;;
74543;SDS011;63016;55.030;38.710;2023-04-24T00:48:27;7.50;;;4.43;;
74543;SDS011;63016;55.030;38.710;2023-04-24T00:50:53;6.50;;;4.13;;
74543;SDS011;63016;55.030;38.710;2023-04-24T00:53:19;8.27;;;4.53;;
74543;SDS011;63016;55.030;38.710;2023-04-24T00:55:45;9.25;;;4.82;;
74543;SDS011;63016;55.030;38.710;2023-04-24T00:58:10;8.27;;;4.57;;
74543;SDS011;63016;55.030;38.710;2023-04-24T01:00:36;7.78;;;4.68;;
74543;SDS011;63016;55.030;38.710;2023-04-24T01:03:02;8.02;;;4.63;;
74543;SDS011;63016;55.030;38.710;2023-04-24T01:05:30;10.02;;;4.60;;
74543;SDS011;63016;55.030;38.710;2023-04-24T01:07:56;7.85;;;4.80;;
74543;SDS011;63016;55.030;38.710;2023-04-24T01:10:23;8.45;;;5.30;;
74543;SDS011;63016;55.030;38.710;2023-04-24T01:12:50;8.23;;;4.97;;
74543;SDS011;63016;55.030;38.710;2023-04-24T01:15:17;8.05;;;4.65;;
74543;SDS011;63016;55.030;38.710;2023-04-24T01:17:42;8.40;;;5.50;;
74543;SDS011;63016;55.030;38.710;2023-04-24T01:20:08;8.20;;;5.10;;
74543;SDS011;63016;55.030;38.710;2023-04-24T01:22:34;9.15;;;5.50;;
74543;SDS011;63016;55.030;38.710;2023-04-24T01:25:00;8.20;;;5.55;;
74543;SDS011;63016;55.030;38.710;2023-04-24T01:27:26;11.45;;;5.82;;
74543;SDS011;63016;55.030;38.710;2023-04-24T01:29:51;8.95;;;5.53;;
74543;SDS011;63016;55.030;38.710;2023-04-24T01:32:17;6.65;;;4.78;;
74543;SDS011;63016;55.030;38.710;2023-04-24T01:34:43;9.32;;;5.22;;
74543;SDS011;63016;55.030;38.710;2023-04-24T01:37:10;8.93;;;5.47;;
74543;SDS011;63016;55.030;38.710;2023-04-24T01:39:35;12.48;;;5.28;;
74543;SDS011;63016;55.030;38.710;2023-04-24T01:42:01;10.43;;;5.78;;
74543;SDS011;63016;55.030;38.710;2023-04-24T01:44:30;10.13;;;5.60;;
74543;SDS011;63016;55.030;38.710;2023-04-24T01:46:56;8.70;;;5.57;;
74543;SDS011;63016;55.030;38.710;2023-04-24T01:49:21;8.25;;;5.60;;
74543;SDS011;63016;55.030;38.710;2023-04-24T01:51:47;8.07;;;5.47;;
74543;SDS011;63016;55.030;38.710;2023-04-24T01:54:13;8.18;;;5.35;;
74543;SDS011;63016;55.030;38.710;2023-04-24T01:56:42;8.55;;;4.95;;
74543;SDS011;63016;55.030;38.710;2023-04-24T01:59:09;9.88;;;4.78;;
74543;SDS011;63016;55.030;38.710;2023-04-24T02:01:38;7.80;;;5.70;;
74543;SDS011;63016;55.030;38.710;2023-04-24T02:04:04;7.93;;;4.72;;
74543;SDS011;63016;55.030;38.710;2023-04-24T02:06:31;7.60;;;4.78;;
74543;SDS011;63016;55.030;38.710;2023-04-24T02:08:59;9.55;;;4.97;;
74543;SDS011;63016;55.030;38.710;2023-04-24T02:11:25;9.88;;;5.50;;
74543;SDS011;63016;55.030;38.710;2023-04-24T02:13:51;8.98;;;5.07;;
74543;SDS011;63016;55.030;38.710;2023-04-24T02:16:17;9.75;;;5.60;;
74543;SDS011;63016;55.030;38.710;2023-04-24T02:18:43;8.52;;;4.82;;
74543;SDS011;63016;55.030;38.710;2023-04-24T02:21:09;6.97;;;5.05;;
74543;SDS011;63016;55.030;38.710;2023-04-24T02:23:35;7.90;;;5.15;;
74543;SDS011;63016;55.030;38.710;2023-04-24T02:26:00;9.38;;;4.82;;
74543;SDS011;63016;55.030;38.710;2023-04-24T02:28:26;8.18;;;5.13;;
74543;SDS011;63016;55.030;38.710;2023-04-24T02:30:51;8.60;;;5.22;;
74543;SDS011;63016;55.030;38.710;2023-04-24T02:33:17;7.68;;;4.90;;
74543;SDS011;63016;55.030;38.710;2023-04-24T02:35:42;8.63;;;5.40;;
74543;SDS011;63016;55.030;38.710;2023-04-24T02:38:08;9.80;;;5.43;;
74543;SDS011;63016;55.030;38.710;2023-04-24T02:40:33;11.73;;;5.72;;
74543;SDS011;63016;55.030;38.710;2023-04-24T02:42:59;10.73;;;5.90;;
74543;SDS011;63016;55.030;38.710;2023-04-24T02:45:24;9.65;;;5.60;;
74543;SDS011;63016;55.030;38.710;2023-04-24T02:47:50;9.52;;;5.60;;
74543;SDS011;63016;55.030;38.710;2023-04-24T02:50:16;9.77;;;5.32;;
74543;SDS011;63016;55.030;38.710;2023-04-24T02:52:41;9.30;;;5.82;;
74543;SDS011;63016;55.030;38.710;2023-04-24T02:55:07;9.75;;;5.82;;
74543;SDS011;63016;55.030;38.710;2023-04-24T02:57:33;7.88;;;5.35;;
74543;SDS011;63016;55.030;38.710;2023-04-24T02:59:59;10.00;;;5.90;;
74543;SDS011;63016;55.030;38.710;2023-04-24T03:02:24;11.52;;;5.95;;
74543;SDS011;63016;55.030;38.710;2023-04-24T03:04:50;11.70;;;6.07;;
74543;SDS011;63016;55.030;38.710;2023-04-24T03:07:16;10.85;;;5.68;;
74543;SDS011;63016;55.030;38.710;2023-04-24T03:09:41;10.13;;;5.85;;
74543;SDS011;63016;55.030;38.710;2023-04-24T03:12:07;8.68;;;5.95;;
74543;SDS011;63016;55.030;38.710;2023-04-24T03:14:32;8.73;;;5.57;;
74543;SDS011;63016;55.030;38.710;2023-04-24T03:16:58;9.90;;;5.72;;
74543;SDS011;63016;55.030;38.710;2023-04-24T03:19:23;11.55;;;5.85;;
74543;SDS011;63016;55.030;38.710;2023-04-24T03:21:49;9.48;;;5.97;;
74543;SDS011;63016;55.030;38.710;2023-04-24T03:24:15;9.30;;;5.60;;
74543;SDS011;63016;55.030;38.710;2023-04-24T03:26:41;19.00;;;5.40;;
74543;SDS011;63016;55.030;38.710;2023-04-24T03:29:06;11.13;;;4.95;;
74543;SDS011;63016;55.030;38.710;2023-04-24T03:31:32;11.50;;;5.57;;
74543;SDS011;63016;55.030;38.710;2023-04-24T03:33:57;9.00;;;5.20;;
74543;SDS011;63016;55.030;38.710;2023-04-24T03:36:23;8.27;;;4.93;;
74543;SDS011;63016;55.030;38.710;2023-04-24T03:38:48;14.65;;;5.50;;
74543;SDS011;63016;55.030;38.710;2023-04-24T03:41:14;9.13;;;5.70;;
74543;SDS011;63016;55.030;38.710;2023-04-24T03:43:39;9.70;;;5.55;;
74543;SDS011;63016;55.030;38.710;2023-04-24T03:46:05;8.88;;;5.25;;
74543;SDS011;63016;55.030;38.710;2023-04-24T03:48:30;7.72;;;4.97;;
74543;SDS011;63016;55.030;38.710;2023-04-24T03:50:56;8.55;;;5.32;;
74543;SDS011;63016;55.030;38.710;2023-04-24T03:53:22;7.57;;;5.13;;
74543;SDS011;63016;55.030;38.710;2023-04-24T03:55:47;15.13;;;5.68;;
74543;SDS011;63016;55.030;38.710;2023-04-24T03:58:13;7.15;;;5.43;;
74543;SDS011;63016;55.030;38.710;2023-04-24T04:00:39;7.97;;;5.15;;
74543;SDS011;63016;55.030;38.710;2023-04-24T04:03:06;8.30;;;5.05;;
74543;SDS011;63016;55.030;38.710;2023-04-24T04:05:31;11.10;;;5.45;;
74543;SDS011;63016;55.030;38.710;2023-04-24T04:07:57;15.35;;;5.75;;
74543;SDS011;63016;55.030;38.710;2023-04-24T04:10:22;18.48;;;6.07;;
74543;SDS011;63016;55.030;38.710;2023-04-24T04:12:48;12.95;;;5.35;;
74543;SDS011;63016;55.030;38.710;2023-04-24T04:15:13;10.93;;;5.22;;
74543;SDS011;63016;55.030;38.710;2023-04-24T04:17:39;10.40;;;5.45;;
74543;SDS011;63016;55.030;38.710;2023-04-24T04:20:05;11.57;;;5.25;;
74543;SDS011;63016;55.030;38.710;2023-04-24T04:22:37;10.48;;;5.22;;
74543;SDS011;63016;55.030;38.710;2023-04-24T04:25:02;9.77;;;5.60;;
74543;SDS011;63016;55.030;38.710;2023-04-24T04:27:29;8.65;;;5.22;;
74543;SDS011;63016;55.030;38.710;2023-04-24T04:29:57;10.88;;;5.35;;
74543;SDS011;63016;55.030;38.710;2023-04-24T04:32:26;14.80;;;5.43;;
74543;SDS011;63016;55.030;38.710;2023-04-24T04:34:52;9.52;;;5.32;;
74543;SDS011;63016;55.030;38.710;2023-04-24T04:37:18;10.20;;;5.28;;
74543;SDS011;63016;55.030;38.710;2023-04-24T04:39:44;8.80;;;5.25;;
74543;SDS011;63016;55.030;38.710;2023-04-24T04:42:09;9.20;;;5.18;;
74543;SDS011;63016;55.030;38.710;2023-04-24T04:44:35;10.00;;;5.18;;
74543;SDS011;63016;55.030;38.710;2023-04-24T04:47:01;10.73;;;5.68;;
74543;SDS011;63016;55.030;38.710;2023-04-24T04:49:30;11.40;;;5.78;;
74543;SDS011;63016;55.030;38.710;2023-04-24T04:51:57;11.35;;;6.10;;
74543;SDS011;63016;55.030;38.710;2023-04-24T04:54:22;10.93;;;5.65;;
74543;SDS011;63016;55.030;38.710;2023-04-24T04:56:49;12.55;;;6.32;;
74543;SDS011;63016;55.030;38.710;2023-04-24T04:59:15;10.27;;;5.82;;
74543;SDS011;63016;55.030;38.710;2023-04-24T05:01:41;10.15;;;5.85;;
74543;SDS011;63016;55.030;38.710;2023-04-24T05:04:06;11.15;;;5.75;;
74543;SDS011;63016;55.030;38.710;2023-04-24T05:06:32;9.32;;;5.45;;
74543;SDS011;63016;55.030;38.710;2023-04-24T05:08:57;18.77;;;6.10;;
74543;SDS011;63016;55.030;38.710;2023-04-24T05:11:23;16.08;;;6.30;;
74543;SDS011;63016;55.030;38.710;2023-04-24T05:13:48;14.13;;;5.63;;
74543;SDS011;63016;55.030;38.710;2023-04-24T05:16:14;11.07;;;5.22;;
74543;SDS011;63016;55.030;38.710;2023-04-24T05:18:40;7.75;;;4.63;;
74543;SDS011;63016;55.030;38.710;2023-04-24T05:21:05;10.98;;;5.47;;
74543;SDS011;63016;55.030;38.710;2023-04-24T05:23:31;10.65;;;5.00;;
74543;SDS011;63016;55.030;38.710;2023-04-24T05:25:56;9.25;;;5.20;;
74543;SDS011;63016;55.030;38.710;2023-04-24T05:28:22;12.45;;;5.65;;
74543;SDS011;63016;55.030;38.710;2023-04-24T05:30:47;12.02;;;5.68;;
74543;SDS011;63016;55.030;38.710;2023-04-24T05:33:13;9.15;;;4.55;;
74543;SDS011;63016;55.030;38.710;2023-04-24T05:35:40;8.25;;;4.82;;
74543;SDS011;63016;55.030;38.710;2023-04-24T05:38:10;7.38;;;4.75;;
74543;SDS011;63016;55.030;38.710;2023-04-24T05:40:36;7.80;;;4.90;;
74543;SDS011;63016;55.030;38.710;2023-04-24T05:43:02;8.40;;;4.70;;
74543;SDS011;63016;55.030;38.710;2023-04-24T05:45:27;7.85;;;4.43;;
74543;SDS011;63016;55.030;38.710;2023-04-24T05:47:53;8.63;;;4.45;;
74543;SDS011;63016;55.030;38.710;2023-04-24T05:50:18;9.52;;;4.30;;
74543;SDS011;63016;55.030;38.710;2023-04-24T05:52:50;6.45;;;3.95;;
74543;SDS011;63016;55.030;38.710;2023-04-24T05:55:15;7.28;;;4.22;;
74543;SDS011;63016;55.030;38.710;2023-04-24T05:57:42;5.90;;;4.03;;
74543;SDS011;63016;55.030;38.710;2023-04-24T06:00:07;7.43;;;3.67;;
74543;SDS011;63016;55.030;38.710;2023-04-24T06:02:33;5.55;;;4.10;;
74543;SDS011;63016;55.030;38.710;2023-04-24T06:04:59;8.23;;;3.63;;
74543;SDS011;63016;55.030;38.710;2023-04-24T06:07:25;6.53;;;4.07;;
74543;SDS011;63016;55.030;38.710;2023-04-24T06:09:53;5.95;;;4.05;;
74543;SDS011;63016;55.030;38.710;2023-04-24T06:12:19;6.68;;;3.60;;
74543;SDS011;63016;55.030;38.710;2023-04-24T06:14:45;6.32;;;3.45;;
74543;SDS011;63016;55.030;38.710;2023-04-24T06:17:10;4.82;;;3.55;;
74543;SDS011;63016;55.030;38.710;2023-04-24T06:19:36;6.95;;;3.67;;
74543;SDS011;63016;55.030;38.710;2023-04-24T06:22:01;5.55;;;3.55;;
74543;SDS011;63016;55.030;38.710;2023-04-24T06:24:27;7.18;;;3.80;;
74543;SDS011;63016;55.030;38.710;2023-04-24T06:26:53;5.63;;;3.42;;
74543;SDS011;63016;55.030;38.710;2023-04-24T06:29:19;5.80;;;3.47;;
74543;SDS011;63016;55.030;38.710;2023-04-24T06:31:44;6.55;;;3.42;;
74543;SDS011;63016;55.030;38.710;2023-04-24T06:34:10;4.78;;;3.35;;
74543;SDS011;63016;55.030;38.710;2023-04-24T06:36:35;5.57;;;3.25;;
74543;SDS011;63016;55.030;38.710;2023-04-24T06:39:01;5.68;;;3.58;;
74543;SDS011;63016;55.030;38.710;2023-04-24T06:41:28;8.45;;;3.95;;
74543;SDS011;63016;55.030;38.710;2023-04-24T06:43:54;7.00;;;3.80;;
74543;SDS011;63016;55.030;38.710;2023-04-24T06:46:19;5.45;;;3.38;;
74543;SDS011;63016;55.030;38.710;2023-04-24T06:48:48;4.93;;;3.20;;
74543;SDS011;63016;55.030;38.710;2023-04-24T06:51:14;6.53;;;3.22;;
74543;SDS011;63016;55.030;38.710;2023-04-24T06:53:40;4.68;;;3.20;;
74543;SDS011;63016;55.030;38.710;2023-04-24T06:56:05;6.72;;;4.22;;
74543;SDS011;63016;55.030;38.710;2023-04-24T06:58:31;5.20;;;3.53;;
74543;SDS011;63016;55.030;38.710;2023-04-24T07:00:56;7.38;;;3.97;;
74543;SDS011;63016;55.030;38.710;2023-04-24T07:03:22;7.28;;;3.50;;
74543;SDS011;63016;55.030;38.710;2023-04-24T07:05:47;7.63;;;4.15;;
74543;SDS011;63016;55.030;38.710;2023-04-24T07:08:14;7.97;;;4.22;;
74543;SDS011;63016;55.030;38.710;2023-04-24T07:10:42;7.22;;;4.22;;
74543;SDS011;63016;55.030;38.710;2023-04-24T07:13:07;6.72;;;3.85;;
74543;SDS011;63016;55.030;38.710;2023-04-24T07:15:33;6.35;;;3.97;;
74543;SDS011;63016;55.030;38.710;2023-04-24T07:17:59;4.85;;;3.55;;
74543;SDS011;63016;55.030;38.710;2023-04-24T07:20:25;5.47;;;3.20;;
74543;SDS011;63016;55.030;38.710;2023-04-24T07:22:51;4.50;;;2.55;;
74543;SDS011;63016;55.030;38.710;2023-04-24T07:25:16;5.40;;;2.28;;
74543;SDS011;63016;55.030;38.710;2023-04-24T07:27:42;8.10;;;2.22;;
74543;SDS011;63016;55.030;38.710;2023-04-24T07:30:08;5.25;;;2.17;;
74543;SDS011;63016;55.030;38.710;2023-04-24T07:32:33;5.05;;;2.40;;
74543;SDS011;63016;55.030;38.710;2023-04-24T07:35:00;3.35;;;1.75;;
74543;SDS011;63016;55.030;38.710;2023-04-24T07:37:25;6.70;;;1.90;;
74543;SDS011;63016;55.030;38.710;2023-04-24T07:39:51;2.35;;;1.33;;
74543;SDS011;63016;55.030;38.710;2023-04-24T07:42:16;4.57;;;1.83;;
74543;SDS011;63016;55.030;38.710;2023-04-24T07:44:42;5.10;;;1.50;;
74543;SDS011;63016;55.030;38.710;2023-04-24T07:47:07;3.72;;;1.70;;
74543;SDS011;63016;55.030;38.710;2023-04-24T07:49:33;3.10;;;1.67;;
74543;SDS011;63016;55.030;38.710;2023-04-24T07:52:00;3.15;;;1.27;;
74543;SDS011;63016;55.030;38.710;2023-04-24T07:54:27;7.75;;;1.60;;
74543;SDS011;63016;55.030;38.710;2023-04-24T07:56:53;3.25;;;1.30;;
74543;SDS011;63016;55.030;38.710;2023-04-24T07:59:19;3.83;;;1.52;;
74543;SDS011;63016;55.030;38.710;2023-04-24T08:01:45;2.63;;;1.40;;
74543;SDS011;63016;55.030;38.710;2023-04-24T08:04:10;2.50;;;1.38;;
74543;SDS011;63016;55.030;38.710;2023-04-24T08:06:36;3.15;;;1.20;;
74543;SDS011;63016;55.030;38.710;2023-04-24T08:09:01;1.50;;;1.20;;
74543;SDS011;63016;55.030;38.710;2023-04-24T08:11:27;3.95;;;1.55;;
74543;SDS011;63016;55.030;38.710;2023-04-24T08:17:16;2.50;;;1.10;;
74543;SDS011;63016;55.030;38.710;2023-04-24T08:19:41;3.05;;;1.25;;
74543;SDS011;63016;55.030;38.710;2023-04-24T08:22:12;12.10;;;1.75;;
74543;SDS011;63016;55.030;38.710;2023-04-24T08:24:38;14.77;;;1.63;;
74543;SDS011;63016;55.030;38.710;2023-04-24T08:27:03;21.75;;;1.95;;
74543;SDS011;63016;55.030;38.710;2023-04-24T08:29:29;11.98;;;1.63;;
74543;SDS011;63016;55.030;38.710;2023-04-24T08:31:54;11.18;;;2.00;;
74543;SDS011;63016;55.030;38.710;2023-04-24T08:34:26;5.18;;;1.70;;
74543;SDS011;63016;55.030;38.710;2023-04-24T08:36:51;3.67;;;1.80;;
74543;SDS011;63016;55.030;38.710;2023-04-24T08:39:36;9.10;;;1.85;;
74543;SDS011;63016;55.030;38.710;2023-04-24T08:42:01;4.38;;;1.50;;
74543;SDS011;63016;55.030;38.710;2023-04-24T08:44:33;5.60;;;1.80;;
74543;SDS011;63016;55.030;38.710;2023-04-24T08:47:03;6.63;;;2.08;;
74543;SDS011;63016;55.030;38.710;2023-04-24T08:49:30;5.40;;;1.83;;
74543;SDS011;63016;55.030;38.710;2023-04-24T08:51:56;5.05;;;2.10;;
74543;SDS011;63016;55.030;38.710;2023-04-24T08:54:22;4.10;;;1.92;;
74543;SDS011;63016;55.030;38.710;2023-04-24T08:56:48;4.28;;;1.80;;
74543;SDS011;63016;55.030;38.710;2023-04-24T08:59:32;3.67;;;1.67;;
74543;SDS011;63016;55.030;38.710;2023-04-24T09:02:00;4.78;;;1.88;;
74543;SDS011;63016;55.030;38.710;2023-04-24T09:04:28;3.28;;;1.60;;
74543;SDS011;63016;55.030;38.710;2023-04-24T09:09:41;12.68;;;2.10;;
74543;SDS011;63016;55.030;38.710;2023-04-24T09:12:07;20.58;;;2.53;;
74543;SDS011;63016;55.030;38.710;2023-04-24T09:14:35;13.60;;;2.22;;
74543;SDS011;63016;55.030;38.710;2023-04-24T09:17:03;9.10;;;2.40;;
74543;SDS011;63016;55.030;38.710;2023-04-24T09:19:29;5.47;;;2.00;;
74543;SDS011;63016;55.030;38.710;2023-04-24T09:21:54;6.28;;;2.33;;
74543;SDS011;63016;55.030;38.710;2023-04-24T09:24:20;4.68;;;1.90;;
74543;SDS011;63016;55.030;38.710;2023-04-24T09:26:59;5.20;;;2.00;;
74543;SDS011;63016;55.030;38.710;2023-04-24T09:29:26;4.70;;;2.10;;
74543;SDS011;63016;55.030;38.710;2023-04-24T09:31:52;5.28;;;2.13;;
74543;SDS011;63016;55.030;38.710;2023-04-24T09:34:24;5.00;;;2.50;;
74543;SDS011;63016;55.030;38.710;2023-04-24T09:36:51;5.53;;;2.50;;
74543;SDS011;63016;55.030;38.710;2023-04-24T09:39:18;6.13;;;2.25;;
74543;SDS011;63016;55.030;38.710;2023-04-24T09:44:21;3.75;;;2.10;;
74543;SDS011;63016;55.030;38.710;2023-04-24T09:46:51;3.28;;;2.22;;
74543;SDS011;63016;55.030;38.710;2023-04-24T09:49:30;4.75;;;2.33;;
74543;SDS011;63016;55.030;38.710;2023-04-24T09:52:06;4.40;;;2.25;;
74543;SDS011;63016;55.030;38.710;2023-04-24T09:54:35;6.65;;;2.33;;
74543;SDS011;63016;55.030;38.710;2023-04-24T09:57:04;9.18;;;2.95;;
74543;SDS011;63016;55.030;38.710;2023-04-24T09:59:30;8.25;;;2.78;;
74543;SDS011;63016;55.030;38.710;2023-04-24T10:01:55;4.05;;;2.03;;
74543;SDS011;63016;55.030;38.710;2023-04-24T10:04:24;5.18;;;2.17;;
74543;SDS011;63016;55.030;38.710;2023-04-24T10:06:51;5.68;;;2.58;;
74543;SDS011;63016;55.030;38.710;2023-04-24T10:09:20;5.03;;;2.40;;
74543;SDS011;63016;55.030;38.710;2023-04-24T10:11:49;6.40;;;2.10;;
74543;SDS011;63016;55.030;38.710;2023-04-24T10:14:16;6.97;;;2.45;;
74543;SDS011;63016;55.030;38.710;2023-04-24T10:16:43;3.30;;;2.00;;
74543;SDS011;63016;55.030;38.710;2023-04-24T10:19:12;5.20;;;2.22;;
74543;SDS011;63016;55.030;38.710;2023-04-24T10:21:38;5.80;;;2.03;;
74543;SDS011;63016;55.030;38.710;2023-04-24T10:24:07;5.47;;;2.42;;
74543;SDS011;63016;55.030;38.710;2023-04-24T10:26:34;5.70;;;2.28;;
74543;SDS011;63016;55.030;38.710;2023-04-24T10:29:00;8.38;;;2.90;;
74543;SDS011;63016;55.030;38.710;2023-04-24T10:31:26;4.63;;;2.42;;
74543;SDS011;63016;55.030;38.710;2023-04-24T10:33:55;5.43;;;2.53;;
74543;SDS011;63016;55.030;38.710;2023-04-24T10:36:22;8.20;;;2.10;;
74543;SDS011;63016;55.030;38.710;2023-04-24T10:38:51;4.55;;;2.20;;
74543;SDS011;63016;55.030;38.710;2023-04-24T10:41:19;6.88;;;2.88;;
74543;SDS011;63016;55.030;38.710;2023-04-24T10:43:48;8.38;;;2.60;;
74543;SDS011;63016;55.030;38.710;2023-04-24T10:46:29;3.75;;;2.50;;
74543;SDS011;63016;55.030;38.710;2023-04-24T10:48:55;4.00;;;2.40;;
74543;SDS011;63016;55.030;38.710;2023-04-24T10:51:22;5.18;;;2.60;;
74543;SDS011;63016;55.030;38.710;2023-04-24T10:53:51;5.55;;;2.80;;
74543;SDS011;63016;55.030;38.710;2023-04-24T10:56:17;5.30;;;2.20;;
74543;SDS011;63016;55.030;38.710;2023-04-24T10:58:43;6.00;;;2.60;;
74543;SDS011;63016;55.030;38.710;2023-04-24T11:01:44;5.47;;;2.65;;
74543;SDS011;63016;55.030;38.710;2023-04-24T11:04:03;4.93;;;2.38;;
74543;SDS011;63016;55.030;38.710;2023-04-24T11:06:35;6.22;;;2.30;;
74543;SDS011;63016;55.030;38.710;2023-04-24T11:09:05;3.85;;;2.55;;
74543;SDS011;63016;55.030;38.710;2023-04-24T11:11:32;6.78;;;2.80;;
74543;SDS011;63016;55.030;38.710;2023-04-24T11:19:29;12.40;;;3.85;;
74543;SDS011;63016;55.030;38.710;2023-04-24T11:22:01;7.68;;;2.80;;
74543;SDS011;63016;55.030;38.710;2023-04-24T11:29:23;7.28;;;2.65;;
74543;SDS011;63016;55.030;38.710;2023-04-24T11:32:17;3.40;;;2.38;;
74543;SDS011;63016;55.030;38.710;2023-04-24T11:34:48;8.32;;;2.40;;
74543;SDS011;63016;55.030;38.710;2023-04-24T11:37:15;5.32;;;2.53;;
74543;SDS011;63016;55.030;38.710;2023-04-24T11:39:41;4.85;;;2.47;;
74543;SDS011;63016;55.030;38.710;2023-04-24T11:42:06;4.88;;;2.72;;
74543;SDS011;63016;55.030;38.710;2023-04-24T11:44:33;4.65;;;2.38;;
74543;SDS011;63016;55.030;38.710;2023-04-24T11:47:02;4.43;;;2.50;;
74543;SDS011;63016;55.030;38.710;2023-04-24T11:49:29;5.13;;;2.25;;
74543;SDS011;63016;55.030;38.710;2023-04-24T11:51:55;3.88;;;2.25;;
74543;SDS011;63016;55.030;38.710;2023-04-24T11:54:21;5.22;;;2.22;;
74543;SDS011;63016;55.030;38.710;2023-04-24T11:56:47;4.03;;;2.20;;
74543;SDS011;63016;55.030;38.710;2023-04-24T11:59:13;4.15;;;2.28;;
74543;SDS011;63016;55.030;38.710;2023-04-24T12:01:45;3.90;;;2.03;;
74543;SDS011;63016;55.030;38.710;2023-04-24T12:04:11;8.05;;;2.20;;
74543;SDS011;63016;55.030;38.710;2023-04-24T12:06:37;3.75;;;2.03;;
74543;SDS011;63016;55.030;38.710;2023-04-24T12:09:03;5.80;;;2.30;;
74543;SDS011;63016;55.030;38.710;2023-04-24T12:11:29;3.85;;;2.10;;
74543;SDS011;63016;55.030;38.710;2023-04-24T12:13:54;3.65;;;2.17;;
74543;SDS011;63016;55.030;38.710;2023-04-24T12:16:20;5.90;;;2.03;;
74543;SDS011;63016;55.030;38.710;2023-04-24T12:18:45;4.25;;;2.10;;
74543;SDS011;63016;55.030;38.710;2023-04-24T12:21:21;4.35;;;2.00;;
74543;SDS011;63016;55.030;38.710;2023-04-24T12:23:48;3.88;;;2.00;;
74543;SDS011;63016;55.030;38.710;2023-04-24T12:26:17;4.97;;;2.20;;
74543;SDS011;63016;55.030;38.710;2023-04-24T12:28:46;5.07;;;1.88;;
74543;SDS011;63016;55.030;38.710;2023-04-24T12:31:13;4.50;;;2.20;;
74543;SDS011;63016;55.030;38.710;2023-04-24T12:33:38;10.32;;;2.10;;
74543;SDS011;63016;55.030;38.710;2023-04-24T12:36:04;4.18;;;2.30;;
74543;SDS011;63016;55.030;38.710;2023-04-24T12:38:31;3.72;;;2.05;;
74543;SDS011;63016;55.030;38.710;2023-04-24T12:41:06;6.78;;;2.83;;
74543;SDS011;63016;55.030;38.710;2023-04-24T12:43:31;4.47;;;1.98;;
74543;SDS011;63016;55.030;38.710;2023-04-24T12:45:58;5.22;;;2.35;;
74543;SDS011;63016;55.030;38.710;2023-04-24T12:48:24;10.82;;;2.40;;
74543;SDS011;63016;55.030;38.710;2023-04-24T12:50:51;11.27;;;2.58;;
74543;SDS011;63016;55.030;38.710;2023-04-24T12:53:16;10.60;;;2.75;;
74543;SDS011;63016;55.030;38.710;2023-04-24T12:55:42;7.60;;;2.40;;
74543;SDS011;63016;55.030;38.710;2023-04-24T12:58:07;8.48;;;2.50;;
74543;SDS011;63016;55.030;38.710;2023-04-24T13:00:33;7.55;;;2.80;;
74543;SDS011;63016;55.030;38.710;2023-04-24T13:02:58;6.25;;;2.53;;
74543;SDS011;63016;55.030;38.710;2023-04-24T13:05:24;10.73;;;2.90;;
74543;SDS011;63016;55.030;38.710;2023-04-24T13:07:50;8.18;;;2.80;;
74543;SDS011;63016;55.030;38.710;2023-04-24T13:10:15;8.90;;;3.05;;
74543;SDS011;63016;55.030;38.710;2023-04-24T13:12:41;8.77;;;2.95;;
74543;SDS011;63016;55.030;38.710;2023-04-24T13:15:10;8.18;;;3.00;;
74543;SDS011;63016;55.030;38.710;2023-04-24T13:17:35;10.77;;;2.80;;
74543;SDS011;63016;55.030;38.710;2023-04-24T13:20:01;5.93;;;2.65;;
74543;SDS011;63016;55.030;38.710;2023-04-24T13:22:27;7.93;;;2.67;;
74543;SDS011;63016;55.030;38.710;2023-04-24T13:24:53;8.45;;;2.53;;
74543;SDS011;63016;55.030;38.710;2023-04-24T13:27:18;7.55;;;2.50;;
74543;SDS011;63016;55.030;38.710;2023-04-24T13:29:44;5.28;;;2.58;;
74543;SDS011;63016;55.030;38.710;2023-04-24T13:32:10;4.57;;;2.75;;
74543;SDS011;63016;55.030;38.710;2023-04-24T13:34:36;9.43;;;2.40;;
74543;SDS011;63016;55.030;38.710;2023-04-24T13:37:01;5.53;;;2.53;;
74543;SDS011;63016;55.030;38.710;2023-04-24T13:39:28;5.60;;;2.47;;
74543;SDS011;63016;55.030;38.710;2023-04-24T13:41:55;6.70;;;2.15;;
74543;SDS011;63016;55.030;38.710;2023-04-24T13:44:21;4.13;;;2.72;;
74543;SDS011;63016;55.030;38.710;2023-04-24T13:46:49;6.60;;;2.20;;
74543;SDS011;63016;55.030;38.710;2023-04-24T13:49:17;5.28;;;2.22;;
74543;SDS011;63016;55.030;38.710;2023-04-24T13:51:43;6.68;;;2.28;;
74543;SDS011;63016;55.030;38.710;2023-04-24T13:54:09;5.45;;;2.50;;
74543;SDS011;63016;55.030;38.710;2023-04-24T13:56:34;3.63;;;2.25;;
74543;SDS011;63016;55.030;38.710;2023-04-24T13:59:00;9.52;;;2.60;;
74543;SDS011;63016;55.030;38.710;2023-04-24T14:01:26;16.55;;;2.70;;
74543;SDS011;63016;55.030;38.710;2023-04-24T14:03:52;14.75;;;3.10;;
74543;SDS011;63016;55.030;38.710;2023-04-24T14:06:19;11.27;;;2.72;;
74543;SDS011;63016;55.030;38.710;2023-04-24T14:08:45;11.45;;;2.63;;
74543;SDS011;63016;55.030;38.710;2023-04-24T14:11:12;21.67;;;2.92;;
74543;SDS011;63016;55.030;38.710;2023-04-24T14:13:38;17.15;;;3.65;;
74543;SDS011;63016;55.030;38.710;2023-04-24T14:16:05;13.48;;;2.55;;
74543;SDS011;63016;55.030;38.710;2023-04-24T14:18:31;7.82;;;2.50;;
74543;SDS011;63016;55.030;38.710;2023-04-24T14:20:57;7.28;;;2.45;;
74543;SDS011;63016;55.030;38.710;2023-04-24T14:23:22;9.07;;;2.40;;
74543;SDS011;63016;55.030;38.710;2023-04-24T14:25:48;7.38;;;2.40;;
74543;SDS011;63016;55.030;38.710;2023-04-24T14:28:17;6.47;;;2.38;;
74543;SDS011;63016;55.030;38.710;2023-04-24T14:30:46;8.00;;;2.30;;
74543;SDS011;63016;55.030;38.710;2023-04-24T14:33:15;4.97;;;2.42;;
74543;SDS011;63016;55.030;38.710;2023-04-24T14:35:40;3.35;;;2.00;;
74543;SDS011;63016;55.030;38.710;2023-04-24T14:38:10;4.47;;;1.92;;
74543;SDS011;63016;55.030;38.710;2023-04-24T14:40:36;4.25;;;2.25;;
74543;SDS011;63016;55.030;38.710;2023-04-24T14:43:02;4.05;;;2.25;;
74543;SDS011;63016;55.030;38.710;2023-04-24T14:45:28;23.13;;;3.08;;
74543;SDS011;63016;55.030;38.710;2023-04-24T14:47:54;8.55;;;2.70;;